createdAt,value
2022-11-15T00:00:49.263Z,11.86
2022-11-15T00:01:49.236Z,11.81
2022-11-15T00:02:49.161Z,11.90
2022-11-15T00:03:49.194Z,11.81
2022-11-15T00:04:49.142Z,11.86
2022-11-15T00:05:49.187Z,11.83
2022-11-15T00:06:49.183Z,11.81
2022-11-15T00:07:55.575Z,11.83
2022-11-15T00:08:51.102Z,11.91
2022-11-15T00:09:50.112Z,11.84
2022-11-15T00:10:49.165Z,11.86
2022-11-15T00:11:49.098Z,11.86
2022-11-15T00:12:49.084Z,11.78
2022-11-15T00:13:49.175Z,11.66
2022-11-15T00:14:49.068Z,11.78
2022-11-15T00:15:49.097Z,11.68
2022-11-15T00:18:07.595Z,11.65
2022-11-15T00:19:07.620Z,11.66
2022-11-15T00:20:07.606Z,11.77
2022-11-15T00:21:07.630Z,11.68
2022-11-15T00:22:08.738Z,11.52
2022-11-15T00:23:08.729Z,11.47
2022-11-15T00:24:08.722Z,11.45
2022-11-15T00:25:08.711Z,11.47
2022-11-15T00:26:08.728Z,11.48
2022-11-15T00:27:08.694Z,11.52
2022-11-15T00:28:08.685Z,11.52
2022-11-15T00:29:08.685Z,11.50
2022-11-15T00:30:08.667Z,11.50
2022-11-15T00:31:08.700Z,11.52
2022-11-15T00:32:08.655Z,11.57
2022-11-15T00:33:08.649Z,11.59
2022-11-15T00:34:08.643Z,11.57
2022-11-15T00:35:08.633Z,11.65
2022-11-15T00:36:08.658Z,11.57
2022-11-15T00:37:08.609Z,11.63
2022-11-15T00:38:09.605Z,11.62
2022-11-15T00:39:08.603Z,11.68
2022-11-15T00:40:08.591Z,11.63
2022-11-15T00:41:09.898Z,11.65
2022-11-15T00:42:09.573Z,11.55
2022-11-15T00:43:08.569Z,11.57
2022-11-15T00:44:08.555Z,11.55
2022-11-15T00:45:08.555Z,11.57
2022-11-15T00:46:08.569Z,11.54
2022-11-15T00:47:08.536Z,11.55
2022-11-15T00:48:08.536Z,11.51
2022-11-15T00:49:08.525Z,11.50
2022-11-15T00:50:10.708Z,11.44
2022-11-15T00:51:09.538Z,11.41
2022-11-15T00:52:08.502Z,11.43
2022-11-15T00:53:08.498Z,11.41
2022-11-15T00:54:08.485Z,11.32
2022-11-15T00:55:08.483Z,11.29
2022-11-15T00:56:08.502Z,11.23
2022-11-15T00:57:08.461Z,11.17
2022-11-15T00:58:08.451Z,10.99
2022-11-15T00:59:08.454Z,11.08
2022-11-15T01:00:08.439Z,10.96
2022-11-15T01:01:08.509Z,10.93
2022-11-15T01:02:08.431Z,11.05
2022-11-15T01:03:08.423Z,10.92
2022-11-15T01:04:08.409Z,10.82
2022-11-15T01:05:08.406Z,10.78
2022-11-15T01:06:08.423Z,10.75
2022-11-15T01:07:08.457Z,10.72
2022-11-15T01:08:08.379Z,10.67
2022-11-15T01:09:08.377Z,10.68
2022-11-15T01:10:08.366Z,10.63
2022-11-15T01:11:08.395Z,10.68
2022-11-15T01:12:08.355Z,10.61
2022-11-15T01:13:08.350Z,10.56
2022-11-15T01:14:08.334Z,10.64
2022-11-15T01:15:08.333Z,10.57
2022-11-15T01:16:08.348Z,10.48
2022-11-15T01:17:08.310Z,10.44
2022-11-15T01:18:08.311Z,10.40
2022-11-15T01:19:08.300Z,10.46
2022-11-15T01:20:08.293Z,10.35
2022-11-15T01:21:08.307Z,10.34
2022-11-15T01:22:08.283Z,10.23
2022-11-15T01:23:08.266Z,10.28
2022-11-15T01:24:08.268Z,10.23
2022-11-15T01:25:08.264Z,10.19
2022-11-15T01:26:08.273Z,10.19
2022-11-15T01:27:08.234Z,10.10
2022-11-15T01:28:08.227Z,9.91
2022-11-15T01:29:08.226Z,9.82
2022-11-15T01:30:08.214Z,9.79
2022-11-15T01:31:08.237Z,9.77
2022-11-15T01:32:08.196Z,9.77
2022-11-15T01:33:08.188Z,9.65
2022-11-15T01:34:08.187Z,9.46
2022-11-15T01:35:08.172Z,9.54
2022-11-15T01:36:08.197Z,9.48
2022-11-15T01:37:08.172Z,9.44
2022-11-15T01:38:08.161Z,9.36
2022-11-15T01:39:08.147Z,9.37
2022-11-15T01:40:08.136Z,9.40
2022-11-15T01:41:08.156Z,9.31
2022-11-15T01:42:08.115Z,9.44
2022-11-15T01:43:08.114Z,9.51
2022-11-15T01:44:08.109Z,9.37
2022-11-15T01:45:08.095Z,9.39
2022-11-15T01:46:08.122Z,9.40
2022-11-15T01:47:08.076Z,9.43
2022-11-15T01:48:08.065Z,9.41
2022-11-15T01:49:08.064Z,9.37
2022-11-15T01:50:08.056Z,9.44
2022-11-15T01:51:08.071Z,9.43
2022-11-15T01:52:08.036Z,9.29
2022-11-15T01:53:08.030Z,9.29
2022-11-15T01:54:08.020Z,9.26
2022-11-15T01:55:08.017Z,9.28
2022-11-15T01:56:08.034Z,9.25
2022-11-15T01:57:08.002Z,9.16
2022-11-15T01:58:08.000Z,9.22
2022-11-15T01:59:07.989Z,9.19
2022-11-15T02:00:07.981Z,9.13
2022-11-15T02:01:08.029Z,9.11
2022-11-15T02:02:07.958Z,8.88
2022-11-15T02:03:07.957Z,8.84
2022-11-15T02:04:07.953Z,8.81
2022-11-15T02:05:07.936Z,8.79
2022-11-15T02:06:07.955Z,8.81
2022-11-15T02:07:07.964Z,8.74
2022-11-15T02:08:07.917Z,8.78
2022-11-15T02:09:07.912Z,8.78
2022-11-15T02:10:07.907Z,8.76
2022-11-15T02:11:07.924Z,8.78
2022-11-15T02:12:07.898Z,8.66
2022-11-15T02:13:07.884Z,8.74
2022-11-15T02:14:07.866Z,8.79
2022-11-15T02:15:07.869Z,8.69
2022-11-15T02:16:07.884Z,8.69
2022-11-15T02:17:07.847Z,8.66
2022-11-15T02:18:07.833Z,8.61
2022-11-15T02:19:07.826Z,8.48
2022-11-15T02:20:07.821Z,8.46
2022-11-15T02:21:07.809Z,8.48
2022-11-15T02:22:07.849Z,8.36
2022-11-15T02:23:07.797Z,8.33
2022-11-15T02:24:07.790Z,8.27
2022-11-15T02:25:07.787Z,8.28
2022-11-15T02:26:07.774Z,8.28
2022-11-15T02:27:07.795Z,8.23
2022-11-15T02:28:07.766Z,8.19
2022-11-15T02:29:07.752Z,8.26
2022-11-15T02:30:07.758Z,8.24
2022-11-15T02:31:07.739Z,8.24
2022-11-15T02:32:07.758Z,8.20
2022-11-15T02:33:07.722Z,8.24
2022-11-15T02:34:07.716Z,8.27
2022-11-15T02:35:07.708Z,8.27
2022-11-15T02:36:07.700Z,8.36
2022-11-15T02:37:07.726Z,8.38
2022-11-15T02:38:07.691Z,8.46
2022-11-15T02:39:07.680Z,8.46
2022-11-15T02:40:07.666Z,8.48
2022-11-15T02:41:07.658Z,8.49
2022-11-15T02:42:07.677Z,8.48
2022-11-15T02:43:08.529Z,8.45
2022-11-15T02:44:08.636Z,8.49
2022-11-15T02:45:07.626Z,8.55
2022-11-15T02:46:07.623Z,8.56
2022-11-15T02:47:07.635Z,8.56
2022-11-15T02:48:07.606Z,8.67
2022-11-15T02:49:07.595Z,8.56
2022-11-15T02:50:07.613Z,8.61
2022-11-15T02:51:07.580Z,8.55
2022-11-15T02:52:07.608Z,8.52
2022-11-15T02:53:07.573Z,8.34
2022-11-15T02:54:07.579Z,8.16
2022-11-15T02:55:07.547Z,8.05
2022-11-15T02:56:07.546Z,8.08
2022-11-15T02:57:07.570Z,8.06
2022-11-15T02:58:07.530Z,8.05
2022-11-15T02:59:07.519Z,8.12
2022-11-15T03:00:07.520Z,7.97
2022-11-15T03:01:07.554Z,7.97
2022-11-15T03:02:07.551Z,7.94
2022-11-15T03:03:07.493Z,7.95
2022-11-15T03:04:07.487Z,7.85
2022-11-15T03:05:07.482Z,7.90
2022-11-15T03:06:07.473Z,7.94
2022-11-15T03:07:07.531Z,7.79
2022-11-15T03:08:07.463Z,7.77
2022-11-15T03:09:07.448Z,7.77
2022-11-15T03:10:07.448Z,7.70
2022-11-15T03:11:07.434Z,7.58
2022-11-15T03:12:07.428Z,7.66
2022-11-15T03:13:07.455Z,7.73
2022-11-15T03:14:07.414Z,7.63
2022-11-15T03:15:07.412Z,7.70
2022-11-15T03:16:07.422Z,7.70
2022-11-15T03:17:07.388Z,7.67
2022-11-15T03:18:07.399Z,7.72
2022-11-15T03:19:07.376Z,7.69
2022-11-15T03:20:07.373Z,7.77
2022-11-15T03:21:07.398Z,7.72
2022-11-15T03:22:07.347Z,7.66
2022-11-15T03:23:07.334Z,7.77
2022-11-15T03:24:07.325Z,7.79
2022-11-15T03:25:07.323Z,7.83
2022-11-15T03:26:07.345Z,7.75
2022-11-15T03:27:07.304Z,7.88
2022-11-15T03:28:07.296Z,7.79
2022-11-15T03:29:07.294Z,7.85
2022-11-15T03:30:07.317Z,7.80
2022-11-15T03:31:07.291Z,7.88
2022-11-15T03:32:07.296Z,7.79
2022-11-15T03:33:07.262Z,7.77
2022-11-15T03:34:07.257Z,7.76
2022-11-15T03:35:07.251Z,7.77
2022-11-15T03:36:07.241Z,7.76
2022-11-15T03:37:07.265Z,7.72
2022-11-15T03:38:07.246Z,7.60
2022-11-15T03:39:07.216Z,7.67
2022-11-15T03:40:07.207Z,7.66
2022-11-15T03:41:07.202Z,7.51
2022-11-15T03:42:07.221Z,7.40
2022-11-15T03:43:07.181Z,7.36
2022-11-15T03:44:07.179Z,7.33
2022-11-15T03:45:07.163Z,7.21
2022-11-15T03:46:07.162Z,7.18
2022-11-15T03:47:07.178Z,7.28
2022-11-15T03:48:07.143Z,7.21
2022-11-15T03:49:07.142Z,7.20
2022-11-15T03:50:07.127Z,7.02
2022-11-15T03:51:07.123Z,6.96
2022-11-15T03:52:07.136Z,7.00
2022-11-15T03:53:07.115Z,7.10
2022-11-15T03:54:07.105Z,7.07
2022-11-15T03:55:07.099Z,7.06
2022-11-15T03:56:07.087Z,7.06
2022-11-15T03:57:07.097Z,7.06
2022-11-15T03:58:07.063Z,7.05
2022-11-15T03:59:07.068Z,6.93
2022-11-15T04:00:07.047Z,6.84
2022-11-15T04:01:07.072Z,6.79
2022-11-15T04:02:07.059Z,6.82
2022-11-15T04:03:07.049Z,6.85
2022-11-15T04:04:07.027Z,6.81
2022-11-15T04:05:07.023Z,6.85
2022-11-15T04:06:07.002Z,6.87
2022-11-15T04:07:07.090Z,6.92
2022-11-15T04:08:06.993Z,6.93
2022-11-15T04:09:07.000Z,6.87
2022-11-15T04:10:06.972Z,6.93
2022-11-15T04:11:06.967Z,6.99
2022-11-15T04:12:06.985Z,6.99
2022-11-15T04:13:06.950Z,7.03
2022-11-15T04:14:06.939Z,7.00
2022-11-15T04:15:06.955Z,6.96
2022-11-15T04:16:06.929Z,6.87
2022-11-15T04:17:06.953Z,7.02
2022-11-15T04:18:06.919Z,6.97
2022-11-15T04:19:06.907Z,7.00
2022-11-15T04:20:06.894Z,7.13
2022-11-15T04:21:06.894Z,7.11
2022-11-15T04:22:06.905Z,7.10
2022-11-15T04:23:06.911Z,7.20
2022-11-15T04:24:06.863Z,7.24
2022-11-15T04:25:07.858Z,7.33
2022-11-15T04:26:06.855Z,7.31
2022-11-15T04:27:06.841Z,7.31
2022-11-15T04:28:06.902Z,7.28
2022-11-15T04:29:06.836Z,7.31
2022-11-15T04:30:06.841Z,7.06
2022-11-15T04:31:06.817Z,6.96
2022-11-15T04:32:06.844Z,6.85
2022-11-15T04:33:06.796Z,6.74
2022-11-15T04:34:06.786Z,6.63
2022-11-15T04:35:06.803Z,6.66
2022-11-15T04:36:06.774Z,6.72
2022-11-15T04:37:06.783Z,6.60
2022-11-15T04:38:06.782Z,6.69
2022-11-15T04:39:06.755Z,6.70
2022-11-15T04:40:06.748Z,6.56
2022-11-15T04:41:06.738Z,6.59
2022-11-15T04:42:06.745Z,6.67
2022-11-15T04:43:06.756Z,6.60
2022-11-15T04:44:06.712Z,6.64
2022-11-15T04:45:06.705Z,6.64
2022-11-15T04:46:06.693Z,6.62
2022-11-15T04:47:06.690Z,6.62
2022-11-15T04:48:07.706Z,6.57
2022-11-15T04:49:06.671Z,6.64
2022-11-15T04:50:06.666Z,6.66
2022-11-15T04:51:06.652Z,6.67
2022-11-15T04:52:06.642Z,6.64
2022-11-15T04:53:06.670Z,6.75
2022-11-15T04:54:06.630Z,6.62
2022-11-15T04:55:08.323Z,6.74
2022-11-15T04:56:07.620Z,6.77
2022-11-15T04:57:06.609Z,6.82
2022-11-15T04:58:06.628Z,6.79
2022-11-15T04:59:06.589Z,6.82
2022-11-15T05:00:06.581Z,6.85
2022-11-15T05:01:06.682Z,6.75
2022-11-15T05:02:06.568Z,6.79
2022-11-15T05:03:06.595Z,6.82
2022-11-15T05:04:06.554Z,6.66
2022-11-15T05:05:06.548Z,6.62
2022-11-15T05:06:06.538Z,6.60
2022-11-15T05:07:06.633Z,6.66
2022-11-15T05:08:06.706Z,6.57
2022-11-15T05:09:06.521Z,6.63
2022-11-15T05:10:06.507Z,6.67
2022-11-15T05:11:06.505Z,6.63
2022-11-15T05:12:06.517Z,6.56
2022-11-15T05:13:06.497Z,6.52
2022-11-15T05:14:06.515Z,6.57
2022-11-15T05:15:06.475Z,6.52
2022-11-15T05:16:06.459Z,6.51
2022-11-15T05:17:07.465Z,6.52
2022-11-15T05:18:06.456Z,6.57
2022-11-15T05:19:06.467Z,6.70
2022-11-15T05:20:06.437Z,6.74
2022-11-15T05:21:06.425Z,6.78
2022-11-15T05:22:06.426Z,6.66
2022-11-15T05:23:06.426Z,6.64
2022-11-15T05:24:06.465Z,6.69
2022-11-15T05:25:06.402Z,6.62
2022-11-15T05:26:09.136Z,6.75
2022-11-15T05:27:07.389Z,6.75
2022-11-15T05:28:06.375Z,6.67
2022-11-15T05:29:06.405Z,6.70
2022-11-15T05:30:06.357Z,6.66
2022-11-15T05:31:06.355Z,6.57
2022-11-15T05:32:06.344Z,6.63
2022-11-15T05:33:06.341Z,6.62
2022-11-15T05:34:06.357Z,6.52
2022-11-15T05:35:06.321Z,6.42
2022-11-15T05:36:06.320Z,6.35
2022-11-15T05:37:06.303Z,6.28
2022-11-15T05:38:06.294Z,6.07
2022-11-15T05:39:06.316Z,6.11
2022-11-15T05:40:06.286Z,6.08
2022-11-15T05:41:06.280Z,6.01
2022-11-15T05:42:06.275Z,6.07
2022-11-15T05:43:06.264Z,6.04
2022-11-15T05:44:06.286Z,6.05
2022-11-15T05:45:06.247Z,5.93
2022-11-15T05:46:06.248Z,5.98
2022-11-15T05:47:06.229Z,5.98
2022-11-15T05:48:06.224Z,5.90
2022-11-15T05:49:06.240Z,6.07
2022-11-15T05:50:06.215Z,6.04
2022-11-15T05:51:06.201Z,6.09
2022-11-15T05:52:06.195Z,6.12
2022-11-15T05:53:06.187Z,6.17
2022-11-15T05:54:06.199Z,6.17
2022-11-15T05:55:06.167Z,6.22
2022-11-15T05:56:06.166Z,6.22
2022-11-15T05:57:06.157Z,6.38
2022-11-15T05:58:06.150Z,6.24
2022-11-15T05:59:06.163Z,6.27
2022-11-15T06:00:06.129Z,6.24
2022-11-15T06:01:06.121Z,6.36
2022-11-15T06:02:06.168Z,6.45
2022-11-15T06:03:06.107Z,6.28
2022-11-15T06:04:06.154Z,6.30
2022-11-15T06:05:06.093Z,6.39
2022-11-15T06:06:06.087Z,6.41
2022-11-15T06:07:06.124Z,6.39
2022-11-15T06:08:06.068Z,6.48
2022-11-15T06:09:06.087Z,6.41
2022-11-15T06:10:06.053Z,6.27
2022-11-15T06:11:06.050Z,6.22
2022-11-15T06:12:06.041Z,6.33
2022-11-15T06:13:06.037Z,6.30
2022-11-15T06:14:06.048Z,6.36
2022-11-15T06:15:07.019Z,6.36
2022-11-15T06:16:06.011Z,6.31
2022-11-15T06:17:38.853Z,6.20
2022-11-15T06:18:06.045Z,6.17
2022-11-15T06:19:05.988Z,6.22
2022-11-15T06:20:06.005Z,6.17
2022-11-15T06:21:05.974Z,6.12
2022-11-15T06:22:05.971Z,6.01
2022-11-15T06:23:05.970Z,5.94
2022-11-15T06:24:05.955Z,5.99
2022-11-15T06:25:06.027Z,5.94
2022-11-15T06:26:05.954Z,5.89
2022-11-15T06:27:05.953Z,5.86
2022-11-15T06:28:05.923Z,5.87
2022-11-15T06:29:05.913Z,5.84
2022-11-15T06:30:05.953Z,5.83
2022-11-15T06:31:05.903Z,5.89
2022-11-15T06:32:05.886Z,5.90
2022-11-15T06:33:05.886Z,5.82
2022-11-15T06:34:05.875Z,5.94
2022-11-15T06:35:05.889Z,5.89
2022-11-15T06:36:05.859Z,5.82
2022-11-15T06:37:05.855Z,5.93
2022-11-15T06:38:05.843Z,5.84
2022-11-15T06:39:05.839Z,5.87
2022-11-15T06:40:05.860Z,5.90
2022-11-15T06:41:05.839Z,5.89
2022-11-15T06:42:05.828Z,5.89
2022-11-15T06:43:05.808Z,5.86
2022-11-15T06:44:05.828Z,5.87
2022-11-15T06:45:05.819Z,5.82
2022-11-15T06:46:05.781Z,5.89
2022-11-15T06:47:05.785Z,5.82
2022-11-15T06:48:05.762Z,5.90
2022-11-15T06:49:09.572Z,5.87
2022-11-15T06:50:06.779Z,5.79
2022-11-15T06:51:05.743Z,5.80
2022-11-15T06:52:05.739Z,5.76
2022-11-15T06:53:05.729Z,5.90
2022-11-15T06:54:05.754Z,5.94
2022-11-15T06:55:05.724Z,5.93
2022-11-15T06:56:05.715Z,5.89
2022-11-15T06:57:05.703Z,5.90
2022-11-15T06:58:05.696Z,5.83
2022-11-15T06:59:05.712Z,5.80
2022-11-15T07:00:05.675Z,5.82
2022-11-15T07:01:05.794Z,5.79
2022-11-15T07:02:05.661Z,5.76
2022-11-15T07:03:05.674Z,5.76
2022-11-15T07:04:05.640Z,5.73
2022-11-15T07:05:05.671Z,5.84
2022-11-15T07:06:07.443Z,5.79
2022-11-15T07:07:06.719Z,5.72
2022-11-15T07:08:05.612Z,5.79
2022-11-15T07:09:05.615Z,5.89
2022-11-15T07:10:05.625Z,5.87
2022-11-15T07:11:05.584Z,5.98
2022-11-15T07:12:07.901Z,6.04
2022-11-15T07:13:06.572Z,6.07
2022-11-15T07:14:05.565Z,6.08
2022-11-15T07:15:05.606Z,6.11
2022-11-15T07:16:05.554Z,6.26
2022-11-15T07:17:05.559Z,6.36
2022-11-15T07:18:05.545Z,6.41
2022-11-15T07:19:05.542Z,6.56
2022-11-15T07:20:05.574Z,6.62
2022-11-15T07:21:05.524Z,6.69
2022-11-15T07:22:05.508Z,6.84
2022-11-15T07:23:05.507Z,6.66
2022-11-15T07:24:05.494Z,6.64
2022-11-15T07:25:05.524Z,6.52
2022-11-15T07:26:05.509Z,6.64
2022-11-15T07:27:05.475Z,6.64
2022-11-15T07:28:05.464Z,6.85
2022-11-15T07:29:05.448Z,6.82
2022-11-15T07:30:05.536Z,7.02
2022-11-15T07:31:05.455Z,7.05
2022-11-15T07:32:05.454Z,6.99
2022-11-15T07:33:05.423Z,6.85
2022-11-15T07:34:05.416Z,6.77
2022-11-15T07:35:05.449Z,6.78
2022-11-15T07:36:05.420Z,6.85
2022-11-15T07:37:05.393Z,6.78
2022-11-15T07:38:05.389Z,6.85
2022-11-15T07:39:05.381Z,6.79
2022-11-15T07:40:05.403Z,6.67
2022-11-15T07:41:05.363Z,6.78
2022-11-15T07:42:05.372Z,6.87
2022-11-15T07:43:05.352Z,6.96
2022-11-15T07:44:05.343Z,7.00
2022-11-15T07:45:05.360Z,6.96
2022-11-15T07:46:05.326Z,7.00
2022-11-15T07:47:05.320Z,6.99
2022-11-15T07:48:05.326Z,6.97
2022-11-15T07:49:05.357Z,6.93
2022-11-15T07:50:05.323Z,6.99
2022-11-15T07:51:08.776Z,7.05
2022-11-15T07:52:06.280Z,7.20
2022-11-15T07:53:05.271Z,7.25
2022-11-15T07:54:05.277Z,7.17
2022-11-15T07:55:05.265Z,7.25
2022-11-15T07:56:05.275Z,7.21
2022-11-15T07:57:07.526Z,7.24
2022-11-15T07:58:06.237Z,7.29
2022-11-15T07:59:05.252Z,7.25
2022-11-15T08:00:05.257Z,7.43
2022-11-15T08:01:05.395Z,7.57
2022-11-15T08:02:05.283Z,7.43
2022-11-15T08:03:05.214Z,7.42
2022-11-15T08:04:05.203Z,7.43
2022-11-15T08:05:05.212Z,7.57
2022-11-15T08:06:05.223Z,7.63
2022-11-15T08:07:05.228Z,7.57
2022-11-15T08:08:05.164Z,7.70
2022-11-15T08:09:05.156Z,7.70
2022-11-15T08:10:05.246Z,7.75
2022-11-15T08:11:05.191Z,7.73
2022-11-15T08:12:05.138Z,7.67
2022-11-15T08:13:05.192Z,7.79
2022-11-15T08:14:05.120Z,7.67
2022-11-15T08:15:05.117Z,7.66
2022-11-15T08:16:05.125Z,7.66
2022-11-15T08:17:05.097Z,7.43
2022-11-15T08:18:05.104Z,7.24
2022-11-15T08:19:05.077Z,7.31
2022-11-15T08:20:05.077Z,7.38
2022-11-15T08:21:05.074Z,7.38
2022-11-15T08:22:06.053Z,7.35
2022-11-15T08:23:05.066Z,7.40
2022-11-15T08:24:05.033Z,7.35
2022-11-15T08:25:05.029Z,7.45
2022-11-15T08:26:05.062Z,7.69
2022-11-15T08:27:05.101Z,7.79
2022-11-15T08:28:05.008Z,7.82
2022-11-15T08:29:05.025Z,7.91
2022-11-15T08:30:05.007Z,7.82
2022-11-15T08:31:05.004Z,7.82
2022-11-15T08:32:04.985Z,7.85
2022-11-15T08:33:04.963Z,7.98
2022-11-15T08:34:04.980Z,8.08
2022-11-15T08:35:04.947Z,8.09
2022-11-15T08:36:04.981Z,8.06
2022-11-15T08:37:04.947Z,8.23
2022-11-15T08:38:04.926Z,8.23
2022-11-15T08:39:04.916Z,8.24
2022-11-15T08:40:04.906Z,8.27
2022-11-15T08:41:04.932Z,8.41
2022-11-15T08:42:04.904Z,8.63
2022-11-15T08:43:04.915Z,8.85
2022-11-15T08:44:04.885Z,9.11
2022-11-15T08:45:04.875Z,9.36
2022-11-15T08:46:04.905Z,9.43
2022-11-15T08:47:04.887Z,9.50
2022-11-15T08:48:04.879Z,9.55
2022-11-15T08:49:04.900Z,9.59
2022-11-15T08:50:04.834Z,9.55
2022-11-15T08:51:04.850Z,9.51
2022-11-15T08:52:04.822Z,9.47
2022-11-15T08:53:04.812Z,9.58
2022-11-15T08:54:04.804Z,9.47
2022-11-15T08:55:04.803Z,9.48
2022-11-15T08:56:04.814Z,9.65
2022-11-15T08:57:04.785Z,9.89
2022-11-15T08:58:04.782Z,9.99
2022-11-15T08:59:04.822Z,10.16
2022-11-15T09:00:04.761Z,10.30
2022-11-15T09:01:04.817Z,10.57
2022-11-15T09:02:04.842Z,10.54
2022-11-15T09:03:04.733Z,10.60
2022-11-15T09:04:04.731Z,10.53
2022-11-15T09:05:04.723Z,10.31
2022-11-15T09:06:04.765Z,10.30
2022-11-15T09:07:04.783Z,10.23
2022-11-15T09:08:25.050Z,10.05
2022-11-15T09:09:06.686Z,10.05
2022-11-15T09:10:04.686Z,10.15
2022-11-15T09:11:04.672Z,10.17
2022-11-15T09:12:04.696Z,10.05
2022-11-15T09:13:04.668Z,10.19
2022-11-15T09:14:04.655Z,10.09
2022-11-15T09:15:04.646Z,10.17
2022-11-15T09:16:04.640Z,10.02
2022-11-15T09:17:04.652Z,10.15
2022-11-15T09:18:04.676Z,10.25
2022-11-15T09:19:08.944Z,10.40
2022-11-15T09:20:06.600Z,10.72
2022-11-15T09:21:04.584Z,10.92
2022-11-15T09:22:04.606Z,11.07
2022-11-15T09:23:04.570Z,11.08
2022-11-15T09:24:04.562Z,11.08
2022-11-15T09:25:08.544Z,11.23
2022-11-15T09:26:06.543Z,11.25
2022-11-15T09:27:04.575Z,11.35
2022-11-15T09:28:04.532Z,11.35
2022-11-15T09:29:04.538Z,11.36
2022-11-15T09:30:04.514Z,11.23
2022-11-15T09:31:04.525Z,11.32
2022-11-15T09:32:04.519Z,11.33
2022-11-15T09:33:04.566Z,11.33
2022-11-15T09:34:04.496Z,11.33
2022-11-15T09:35:04.487Z,11.32
2022-11-15T09:36:04.500Z,11.41
2022-11-15T09:37:04.464Z,11.45
2022-11-15T09:38:04.463Z,11.77
2022-11-15T09:39:04.450Z,11.91
2022-11-15T09:40:04.465Z,11.80
2022-11-15T09:41:04.472Z,11.75
2022-11-15T09:42:05.424Z,11.55
2022-11-15T09:43:04.454Z,11.52
2022-11-15T09:44:04.409Z,11.70
2022-11-15T09:45:04.396Z,11.99
2022-11-15T09:46:04.424Z,12.24
2022-11-15T09:47:04.411Z,12.29
2022-11-15T09:48:04.543Z,11.81
2022-11-15T09:49:04.415Z,11.86
2022-11-15T09:50:04.445Z,12.00
2022-11-15T09:51:04.367Z,12.20
2022-11-15T09:52:04.386Z,12.32
2022-11-15T09:53:04.365Z,12.32
2022-11-15T09:55:05.224Z,12.31
2022-11-15T09:55:06.324Z,12.42
2022-11-15T09:56:04.316Z,12.42
2022-11-15T09:57:04.332Z,12.20
2022-11-15T09:58:04.332Z,12.13
2022-11-15T09:59:04.291Z,12.36
2022-11-15T10:00:30.842Z,12.49
2022-11-15T10:01:06.376Z,12.61
2022-11-15T10:02:04.307Z,12.60
2022-11-15T10:03:04.302Z,12.72
2022-11-15T10:04:07.815Z,12.67
2022-11-15T10:05:06.247Z,12.76
2022-11-15T10:06:04.245Z,12.86
2022-11-15T10:07:04.311Z,12.79
2022-11-15T10:08:04.227Z,12.78
2022-11-15T10:09:04.222Z,12.78
2022-11-15T10:10:04.302Z,12.64
2022-11-15T10:12:06.223Z,12.62
2022-11-15T10:13:04.186Z,12.80
2022-11-15T10:14:04.181Z,12.90
2022-11-15T10:15:04.172Z,12.83
2022-11-15T10:16:04.198Z,12.80
2022-11-15T10:17:04.151Z,12.79
2022-11-15T10:18:04.159Z,12.58
2022-11-15T10:19:04.143Z,12.73
2022-11-15T10:20:06.235Z,12.64
2022-11-15T10:21:05.161Z,12.75
2022-11-15T10:22:04.121Z,12.83
2022-11-15T10:23:04.118Z,12.86
2022-11-15T10:24:04.103Z,12.95
2022-11-15T10:25:04.106Z,12.82
2022-11-15T10:26:07.031Z,12.83
2022-11-15T10:27:05.082Z,12.93
2022-11-15T10:28:04.076Z,12.97
2022-11-15T10:29:04.067Z,13.09
2022-11-15T10:30:04.059Z,13.08
2022-11-15T10:31:04.083Z,13.12
2022-11-15T10:32:04.070Z,13.20
2022-11-15T10:33:04.037Z,13.28
2022-11-15T10:34:04.024Z,13.33
2022-11-15T10:35:04.029Z,13.42
2022-11-15T10:36:04.042Z,13.59
2022-11-15T10:37:04.013Z,13.70
2022-11-15T10:38:04.006Z,13.83
2022-11-15T10:39:04.859Z,13.99
2022-11-15T10:40:04.830Z,14.12
2022-11-15T10:41:03.974Z,14.05
2022-11-15T10:42:10.167Z,14.17
2022-11-15T10:43:05.985Z,14.05
2022-11-15T10:44:03.948Z,13.89
2022-11-15T10:45:03.949Z,13.92
2022-11-15T10:46:24.687Z,14.05
2022-11-15T10:47:05.957Z,14.23
2022-11-15T10:48:03.919Z,14.47
2022-11-15T10:49:03.920Z,14.65
2022-11-15T10:50:03.915Z,14.54
2022-11-15T10:51:03.890Z,14.65
2022-11-15T10:52:03.908Z,14.91
2022-11-15T10:53:03.904Z,15.03
2022-11-15T10:54:07.763Z,14.91
2022-11-15T10:55:04.867Z,14.84
2022-11-15T10:56:03.873Z,14.79
2022-11-15T10:57:03.901Z,14.77
2022-11-15T10:58:03.838Z,14.72
2022-11-15T10:59:03.831Z,14.66
2022-11-15T11:00:03.850Z,14.69
2022-11-15T11:01:03.847Z,14.79
2022-11-15T11:02:03.888Z,14.77
2022-11-15T11:03:03.805Z,14.65
2022-11-15T11:04:03.794Z,14.54
2022-11-15T11:05:03.782Z,14.70
2022-11-15T11:06:03.777Z,14.82
2022-11-15T11:07:03.868Z,14.94
2022-11-15T11:08:03.786Z,14.69
2022-11-15T11:09:03.788Z,14.79
2022-11-15T11:10:13.307Z,14.91
2022-11-15T11:11:04.820Z,15.15
2022-11-15T11:12:03.785Z,15.27
2022-11-15T11:13:03.731Z,15.31
2022-11-15T11:14:03.740Z,15.28
2022-11-15T11:15:03.748Z,15.35
2022-11-15T11:16:03.719Z,15.28
2022-11-15T11:17:03.750Z,15.37
2022-11-15T11:18:03.700Z,15.49
2022-11-15T11:19:03.691Z,15.52
2022-11-15T11:20:03.695Z,15.55
2022-11-15T11:21:03.675Z,15.51
2022-11-15T11:22:03.703Z,15.47
2022-11-15T11:23:03.648Z,15.49
2022-11-15T11:24:03.652Z,15.54
2022-11-15T11:25:03.637Z,15.62
2022-11-15T11:26:03.656Z,15.64
2022-11-15T11:27:03.613Z,15.72
2022-11-15T11:28:03.649Z,15.76
2022-11-15T11:29:03.600Z,15.80
2022-11-15T11:30:03.590Z,15.84
2022-11-15T11:31:03.584Z,15.67
2022-11-15T11:32:03.582Z,15.72
2022-11-15T11:33:03.662Z,15.72
2022-11-15T11:34:03.568Z,15.62
2022-11-15T11:35:03.579Z,15.61
2022-11-15T11:36:03.571Z,15.61
2022-11-15T11:37:03.549Z,15.75
2022-11-15T11:38:03.566Z,15.59
2022-11-15T11:39:03.536Z,15.72
2022-11-15T11:40:09.115Z,15.68
2022-11-15T11:41:05.568Z,15.64
2022-11-15T11:42:03.673Z,15.65
2022-11-15T11:43:03.499Z,15.65
2022-11-15T11:44:03.495Z,15.70
2022-11-15T11:45:03.496Z,15.72
2022-11-15T11:46:03.482Z,15.58
2022-11-15T11:47:03.731Z,15.58
2022-11-15T11:48:03.485Z,15.55
2022-11-15T11:49:03.460Z,15.55
2022-11-15T11:50:03.444Z,15.54
2022-11-15T11:51:03.476Z,15.55
2022-11-15T11:52:03.420Z,15.67
2022-11-15T11:53:04.371Z,15.75
2022-11-15T11:54:04.409Z,15.59
2022-11-15T11:55:03.404Z,15.59
2022-11-15T11:56:03.394Z,15.70
2022-11-15T11:57:03.415Z,15.59
2022-11-15T11:58:03.382Z,15.67
2022-11-15T11:59:03.365Z,15.59
2022-11-15T12:00:03.359Z,15.55
2022-11-15T12:01:04.672Z,15.57
2022-11-15T12:02:03.450Z,15.44
2022-11-15T12:03:03.451Z,15.46
2022-11-15T12:04:03.346Z,15.42
2022-11-15T12:05:03.322Z,15.54
2022-11-15T12:06:03.320Z,15.43
2022-11-15T12:07:03.488Z,15.37
2022-11-15T12:08:04.427Z,15.35
2022-11-15T12:09:04.293Z,15.42
2022-11-15T12:10:03.282Z,15.28
2022-11-15T12:11:04.279Z,15.35
2022-11-15T12:12:03.549Z,15.49
2022-11-15T12:13:03.298Z,15.42
2022-11-15T12:14:03.265Z,15.46
2022-11-15T12:15:03.276Z,15.47
2022-11-15T12:16:06.076Z,15.42
2022-11-15T12:17:05.244Z,15.57
2022-11-15T12:18:35.214Z,15.54
2022-11-15T12:19:03.221Z,15.51
2022-11-15T12:20:03.215Z,15.46
2022-11-15T12:21:03.219Z,15.47
2022-11-15T12:22:03.217Z,15.47
2022-11-15T12:23:03.224Z,15.52
2022-11-15T12:24:03.182Z,15.54
2022-11-15T12:25:03.185Z,15.58
2022-11-15T12:26:03.170Z,15.55
2022-11-15T12:27:03.153Z,15.59
2022-11-15T12:28:04.182Z,15.67
2022-11-15T12:29:09.320Z,15.62
2022-11-15T12:30:05.139Z,15.65
2022-11-15T12:31:03.129Z,15.62
2022-11-15T12:32:03.125Z,15.55
2022-11-15T12:33:03.140Z,15.59
2022-11-15T12:34:07.361Z,15.58
2022-11-15T12:35:04.100Z,15.62
2022-11-15T12:36:03.090Z,15.65
2022-11-15T12:37:03.081Z,15.54
2022-11-15T12:38:03.101Z,15.73
2022-11-15T12:39:03.080Z,15.77
2022-11-15T12:40:04.194Z,15.65
2022-11-15T12:41:04.049Z,15.70
2022-11-15T12:42:03.054Z,15.76
2022-11-15T12:43:03.085Z,15.72
2022-11-15T12:44:03.039Z,15.70
2022-11-15T12:45:03.020Z,15.76
2022-11-15T12:46:03.010Z,15.72
2022-11-15T12:47:03.005Z,15.70
2022-11-15T12:48:03.022Z,15.64
2022-11-15T12:49:02.987Z,15.72
2022-11-15T12:50:02.985Z,15.80
2022-11-15T12:51:02.972Z,15.61
2022-11-15T12:52:02.966Z,15.72
2022-11-15T12:53:02.985Z,15.67
2022-11-15T12:54:02.955Z,15.68
2022-11-15T12:55:03.006Z,15.57
2022-11-15T12:56:02.946Z,15.55
2022-11-15T12:57:02.929Z,15.64
2022-11-15T12:58:02.951Z,15.57
2022-11-15T12:59:02.928Z,15.52
2022-11-15T13:00:02.968Z,15.58
2022-11-15T13:01:02.958Z,15.55
2022-11-15T13:02:02.884Z,15.54
2022-11-15T13:03:02.889Z,15.57
2022-11-15T13:04:02.907Z,15.59
2022-11-15T13:05:02.867Z,15.59
2022-11-15T13:06:02.862Z,15.58
2022-11-15T13:07:02.896Z,15.49
2022-11-15T13:08:02.843Z,15.54
2022-11-15T13:09:02.867Z,15.40
2022-11-15T13:10:02.830Z,15.46